createdAt,value
2019-05-22T00:01:20.339Z,7.60
2019-05-22T00:03:54.022Z,9.90
2019-05-22T00:06:25.732Z,10.77
2019-05-22T00:08:56.854Z,10.13
2019-05-22T00:11:28.084Z,7.47
2019-05-22T00:13:59.641Z,10.90
2019-05-22T00:16:30.671Z,7.43
2019-05-22T00:19:00.081Z,8.17
2019-05-22T00:21:30.127Z,8.97
2019-05-22T00:24:00.193Z,7.87
2019-05-22T00:26:30.191Z,8.27
2019-05-22T00:28:59.605Z,8.87
2019-05-22T00:31:29.939Z,11.10
2019-05-22T00:34:00.131Z,12.60
2019-05-22T00:36:29.871Z,11.50
2019-05-22T00:39:00.538Z,13.20
2019-05-22T00:41:32.655Z,10.23
2019-05-22T00:44:04.084Z,14.70
2019-05-22T00:46:33.952Z,10.70
2019-05-22T00:49:03.951Z,12.83
2019-05-22T00:51:36.407Z,11.87
2019-05-22T00:54:24.049Z,11.80
2019-05-22T00:56:56.439Z,11.13
2019-05-22T00:59:31.583Z,10.60
2019-05-22T01:02:05.065Z,10.70
2019-05-22T01:04:36.802Z,12.33
2019-05-22T01:07:18.168Z,11.67
2019-05-22T01:09:52.928Z,11.77
2019-05-22T01:12:34.032Z,11.20
2019-05-22T01:15:07.235Z,12.67
2019-05-22T01:17:38.124Z,13.53
2019-05-22T01:20:10.420Z,13.47
2019-05-22T01:22:41.621Z,12.03
2019-05-22T01:25:14.301Z,15.10
2019-05-22T01:27:45.864Z,12.97
2019-05-22T01:30:19.253Z,14.80
2019-05-22T01:32:51.881Z,14.23
2019-05-22T01:35:22.944Z,12.77
2019-05-22T01:37:53.119Z,14.40
2019-05-22T01:40:45.115Z,13.17
2019-05-22T01:43:20.977Z,13.90
2019-05-22T01:45:52.568Z,16.03
2019-05-22T01:48:25.870Z,15.10
2019-05-22T01:51:00.297Z,19.73
2019-05-22T01:53:34.394Z,14.87
2019-05-22T01:56:08.649Z,16.03
2019-05-22T01:58:39.156Z,16.83
2019-05-22T02:01:13.278Z,14.13
2019-05-22T02:03:44.761Z,15.10
2019-05-22T02:06:14.945Z,12.40
2019-05-22T02:08:51.532Z,14.53
2019-05-22T02:11:23.355Z,14.30
2019-05-22T02:14:12.412Z,16.73
2019-05-22T02:16:56.344Z,14.73
2019-05-22T02:19:16.513Z,17.13
2019-05-22T02:21:46.126Z,12.93
2019-05-22T02:24:15.961Z,13.73
2019-05-22T02:26:45.919Z,14.43
2019-05-22T02:29:17.329Z,14.93
2019-05-22T02:31:48.003Z,15.10
2019-05-22T02:34:17.952Z,14.93
2019-05-22T02:36:48.385Z,13.33
2019-05-22T02:39:26.180Z,15.50
2019-05-22T02:41:59.666Z,14.27
2019-05-22T02:44:29.710Z,15.83
2019-05-22T02:47:18.352Z,14.83
2019-05-22T02:49:35.956Z,14.37
2019-05-22T02:52:09.910Z,14.27
2019-05-22T02:54:39.860Z,16.63
2019-05-22T02:57:10.973Z,19.97
2019-05-22T02:59:42.317Z,16.10
2019-05-22T03:02:14.059Z,14.77
2019-05-22T03:05:03.683Z,14.90
2019-05-22T03:07:33.701Z,12.37
2019-05-22T03:10:05.748Z,12.80
2019-05-22T03:12:36.375Z,12.87
2019-05-22T03:15:08.775Z,12.93
2019-05-22T03:17:40.850Z,13.07
2019-05-22T03:20:13.710Z,14.03
2019-05-22T03:22:46.150Z,14.97
2019-05-22T03:25:18.202Z,16.23
2019-05-22T03:27:50.604Z,19.03
2019-05-22T03:30:33.892Z,17.80
2019-05-22T03:33:06.238Z,17.13
2019-05-22T03:35:47.941Z,18.87
2019-05-22T03:38:18.866Z,18.03
2019-05-22T03:40:51.498Z,18.57
2019-05-22T03:43:28.259Z,17.93
2019-05-22T03:46:00.574Z,17.47
2019-05-22T03:48:36.254Z,17.17
2019-05-22T03:51:14.301Z,18.53
2019-05-22T03:53:46.271Z,19.47
2019-05-22T03:56:17.375Z,21.67
2019-05-22T03:58:47.023Z,17.43
2019-05-22T04:01:17.686Z,17.87
2019-05-22T04:03:48.332Z,19.00
2019-05-22T04:06:19.398Z,19.47
2019-05-22T04:08:50.502Z,17.07
2019-05-22T04:11:21.452Z,19.63
2019-05-22T04:13:50.856Z,21.43
2019-05-22T04:16:22.191Z,23.63
2019-05-22T04:18:52.175Z,23.87
2019-05-22T04:21:21.588Z,20.37
2019-05-22T04:23:51.355Z,19.50
2019-05-22T04:26:20.855Z,20.10
2019-05-22T04:28:52.961Z,22.93
2019-05-22T04:31:35.348Z,23.00
2019-05-22T04:34:05.153Z,17.10
2019-05-22T04:36:35.609Z,17.40
2019-05-22T04:39:09.267Z,17.93
2019-05-22T04:41:39.007Z,15.33
2019-05-22T04:44:08.457Z,17.50
2019-05-22T04:46:38.220Z,17.17
2019-05-22T04:49:07.688Z,15.77
2019-05-22T04:51:37.099Z,19.10
2019-05-22T04:54:06.657Z,18.37
2019-05-22T04:56:36.743Z,19.00
2019-05-22T04:59:06.616Z,19.63
2019-05-22T05:01:37.292Z,18.97
2019-05-22T05:04:06.938Z,19.63
2019-05-22T05:06:37.726Z,15.70
2019-05-22T05:09:09.857Z,19.80
2019-05-22T05:11:39.908Z,17.87
2019-05-22T05:14:09.420Z,18.27
2019-05-22T05:16:39.103Z,16.73
2019-05-22T05:19:08.960Z,17.47
2019-05-22T05:21:39.128Z,16.57
2019-05-22T05:24:08.704Z,17.60
2019-05-22T05:26:39.098Z,15.70
2019-05-22T05:29:11.269Z,18.03
2019-05-22T05:31:41.212Z,19.13
2019-05-22T05:34:38.336Z,20.40
2019-05-22T05:37:09.748Z,21.80
2019-05-22T05:39:43.982Z,18.00
2019-05-22T05:42:13.580Z,16.63
2019-05-22T05:44:42.975Z,17.83
2019-05-22T05:47:12.572Z,20.37
2019-05-22T05:49:42.742Z,17.67
2019-05-22T05:52:13.217Z,18.00
2019-05-22T05:54:43.536Z,16.87
2019-05-22T05:57:36.363Z,16.60
2019-05-22T06:00:12.306Z,19.17
2019-05-22T06:02:55.682Z,16.47
2019-05-22T06:05:14.380Z,14.87
2019-05-22T06:07:44.302Z,17.70
2019-05-22T06:10:25.750Z,15.70
2019-05-22T06:12:55.547Z,16.87
2019-05-22T06:15:46.580Z,14.80
2019-05-22T06:18:29.758Z,14.40
2019-05-22T06:21:03.985Z,15.67
2019-05-22T06:23:33.907Z,15.67
2019-05-22T06:26:04.857Z,19.10
2019-05-22T06:28:38.000Z,14.83
2019-05-22T06:31:10.635Z,14.70
2019-05-22T06:33:41.167Z,16.03
2019-05-22T06:36:13.220Z,14.33
2019-05-22T06:38:48.658Z,15.10
2019-05-22T06:41:20.080Z,15.17
2019-05-22T06:44:21.731Z,14.13
2019-05-22T06:46:51.136Z,15.63
2019-05-22T06:49:35.754Z,13.93
2019-05-22T06:52:07.447Z,15.70
2019-05-22T06:54:38.274Z,15.50
2019-05-22T06:57:13.444Z,17.33
2019-05-22T06:59:43.465Z,15.53
2019-05-22T07:02:14.996Z,12.07
2019-05-22T07:04:44.940Z,12.70
2019-05-22T07:07:15.570Z,14.70
2019-05-22T07:09:45.635Z,13.93
2019-05-22T07:12:17.439Z,13.13
2019-05-22T07:15:06.373Z,12.40
2019-05-22T07:17:37.475Z,13.90
2019-05-22T07:20:08.017Z,15.60
2019-05-22T07:22:37.415Z,12.00
2019-05-22T07:25:09.441Z,15.13
2019-05-22T07:27:39.839Z,13.43
2019-05-22T07:30:11.215Z,13.27
2019-05-22T07:32:41.068Z,12.97
2019-05-22T07:35:10.561Z,14.67
2019-05-22T07:37:45.221Z,12.40
2019-05-22T07:40:15.359Z,11.67
2019-05-22T07:42:45.207Z,15.67
2019-05-22T07:45:15.735Z,13.47
2019-05-22T07:47:46.563Z,12.27
2019-05-22T07:50:17.312Z,14.23
2019-05-22T07:52:47.983Z,13.43
2019-05-22T07:55:19.826Z,14.37
2019-05-22T07:57:51.764Z,15.10
2019-05-22T08:00:21.843Z,13.00
2019-05-22T08:02:51.542Z,14.77
2019-05-22T08:05:23.313Z,13.50
2019-05-22T08:07:53.687Z,15.37
2019-05-22T08:10:23.736Z,12.57
2019-05-22T08:12:53.377Z,12.47
2019-05-22T08:15:23.689Z,10.80
2019-05-22T08:17:53.098Z,13.63
2019-05-22T08:20:22.850Z,10.60
2019-05-22T08:22:55.376Z,12.97
2019-05-22T08:25:25.026Z,12.07
2019-05-22T08:27:55.887Z,11.83
2019-05-22T08:30:25.936Z,12.10
2019-05-22T08:32:58.317Z,13.07
2019-05-22T08:35:28.533Z,13.17
2019-05-22T08:37:58.294Z,11.37
2019-05-22T08:40:30.681Z,9.87
2019-05-22T08:43:00.617Z,10.83
2019-05-22T08:45:30.455Z,9.90
2019-05-22T08:48:00.032Z,8.57
2019-05-22T08:50:31.052Z,8.33
2019-05-22T08:53:01.035Z,9.50
2019-05-22T08:55:34.341Z,8.70
2019-05-22T08:58:04.625Z,10.33
2019-05-22T09:00:34.792Z,9.57
2019-05-22T09:03:04.828Z,9.93
2019-05-22T09:05:34.729Z,10.03
2019-05-22T09:08:04.237Z,8.53
2019-05-22T09:10:33.884Z,8.60
2019-05-22T09:13:03.642Z,10.97
2019-05-22T09:15:34.857Z,8.57
2019-05-22T09:18:05.028Z,7.63
2019-05-22T09:20:48.715Z,7.60
2019-05-22T09:23:06.095Z,8.47
2019-05-22T09:25:35.819Z,8.70
2019-05-22T09:28:07.204Z,9.87
2019-05-22T09:30:37.057Z,9.90
2019-05-22T09:33:08.419Z,6.80
2019-05-22T09:35:38.109Z,9.43
2019-05-22T09:38:07.949Z,7.43
2019-05-22T09:40:37.536Z,7.80
2019-05-22T09:43:07.029Z,7.80
2019-05-22T09:45:36.998Z,6.60
2019-05-22T09:48:08.054Z,8.03
2019-05-22T09:50:37.678Z,5.83
2019-05-22T09:53:07.927Z,9.97
2019-05-22T09:55:38.231Z,7.57
2019-05-22T09:58:08.295Z,7.07
2019-05-22T10:00:38.427Z,8.77
2019-05-22T10:03:08.697Z,6.75
2019-05-22T10:05:38.491Z,7.80
2019-05-22T10:08:08.270Z,7.78
2019-05-22T10:10:37.943Z,8.90
2019-05-22T10:13:07.489Z,6.67
2019-05-22T10:15:37.523Z,10.78
2019-05-22T10:18:07.062Z,6.92
2019-05-22T10:20:36.872Z,5.47
2019-05-22T10:23:15.660Z,7.20
2019-05-22T10:25:38.833Z,6.72
2019-05-22T10:28:08.938Z,7.25
2019-05-22T10:30:38.517Z,6.95
2019-05-22T10:33:08.411Z,7.75
2019-05-22T10:35:39.462Z,6.37
2019-05-22T10:38:09.362Z,6.28
2019-05-22T10:40:39.152Z,7.42
2019-05-22T10:43:08.795Z,6.20
2019-05-22T10:45:38.765Z,5.60
2019-05-22T10:48:08.225Z,5.95
2019-05-22T10:50:37.876Z,6.67
2019-05-22T10:53:07.943Z,5.28
2019-05-22T10:55:37.595Z,6.72
2019-05-22T10:58:08.138Z,5.70
2019-05-22T11:00:38.049Z,6.12
2019-05-22T11:03:07.614Z,6.35
2019-05-22T11:05:37.239Z,5.78
2019-05-22T11:08:07.476Z,8.40
2019-05-22T11:10:37.052Z,7.35
2019-05-22T11:13:10.117Z,8.23
2019-05-22T11:15:39.648Z,8.43
2019-05-22T11:18:10.449Z,6.35
2019-05-22T11:20:40.606Z,7.90
2019-05-22T11:23:10.065Z,8.90
2019-05-22T11:25:39.651Z,8.48
2019-05-22T11:28:09.097Z,3.35
2019-05-22T11:30:39.243Z,3.15
2019-05-22T11:33:09.349Z,3.37
2019-05-22T11:35:39.021Z,2.98
2019-05-22T11:38:09.197Z,3.55
2019-05-22T11:40:40.613Z,2.80
2019-05-22T11:43:11.219Z,2.47
2019-05-22T11:45:44.772Z,5.67
2019-05-22T11:48:12.014Z,4.05
2019-05-22T11:50:43.233Z,2.42
2019-05-22T11:53:13.693Z,4.00
2019-05-22T11:55:46.153Z,4.17
2019-05-22T11:58:14.821Z,2.52
2019-05-22T12:00:44.312Z,2.47
2019-05-22T12:03:14.161Z,4.25
2019-05-22T12:05:44.831Z,3.50
2019-05-22T12:08:15.163Z,3.00
2019-05-22T12:10:45.139Z,4.37
2019-05-22T12:13:15.186Z,2.20
2019-05-22T12:15:45.129Z,3.47
2019-05-22T12:18:15.079Z,2.83
2019-05-22T12:20:44.741Z,3.08
2019-05-22T12:23:14.249Z,2.87
2019-05-22T12:25:43.867Z,2.77
2019-05-22T12:28:13.525Z,4.03
2019-05-22T12:30:43.950Z,4.50
2019-05-22T12:33:14.482Z,3.10
2019-05-22T12:35:44.892Z,4.17
2019-05-22T12:38:14.936Z,3.85
2019-05-22T12:40:45.053Z,4.62
2019-05-22T12:43:15.998Z,3.57
2019-05-22T12:45:45.914Z,3.17
2019-05-22T12:48:15.951Z,5.27
2019-05-22T12:50:45.572Z,3.00
2019-05-22T12:53:15.163Z,3.40
2019-05-22T12:55:44.840Z,2.97
2019-05-22T12:58:14.595Z,3.03
2019-05-22T13:00:44.569Z,3.90
2019-05-22T13:03:15.167Z,4.77
2019-05-22T13:05:45.305Z,4.20
2019-05-22T13:08:15.220Z,4.27
2019-05-22T13:10:46.009Z,3.50
2019-05-22T13:13:15.939Z,4.27
2019-05-22T13:15:46.005Z,4.47
2019-05-22T13:18:18.460Z,4.77
2019-05-22T13:20:50.820Z,2.80
2019-05-22T13:23:23.178Z,3.10
2019-05-22T13:25:53.321Z,4.33
2019-05-22T13:28:23.841Z,3.60
2019-05-22T13:30:55.341Z,3.30
2019-05-22T13:33:27.681Z,4.00
2019-05-22T13:35:57.689Z,4.53
2019-05-22T13:38:28.334Z,5.13
2019-05-22T13:40:58.239Z,5.57
2019-05-22T13:43:28.681Z,8.03
2019-05-22T13:45:58.071Z,3.90
2019-05-22T13:48:28.383Z,6.23
2019-05-22T13:50:59.204Z,4.10
2019-05-22T13:53:29.923Z,5.00
2019-05-22T13:55:59.472Z,6.00
2019-05-22T13:58:30.708Z,4.63
2019-05-22T14:01:00.100Z,5.73
2019-05-22T14:03:30.411Z,5.27
2019-05-22T14:06:00.361Z,5.37
2019-05-22T14:08:29.999Z,5.07
2019-05-22T14:10:59.580Z,5.27
2019-05-22T14:13:29.735Z,5.87
2019-05-22T14:15:59.316Z,5.93
2019-05-22T14:18:28.907Z,5.60
2019-05-22T14:20:58.887Z,6.53
2019-05-22T14:23:29.032Z,6.73
2019-05-22T14:25:58.688Z,5.37
2019-05-22T14:28:28.699Z,5.30
2019-05-22T14:30:58.566Z,6.10
2019-05-22T14:33:29.253Z,6.20
2019-05-22T14:36:02.756Z,7.03
2019-05-22T14:38:32.958Z,6.47
2019-05-22T14:41:03.589Z,6.50
2019-05-22T14:43:33.064Z,6.00
2019-05-22T14:46:03.131Z,6.73
2019-05-22T14:48:33.558Z,6.67
2019-05-22T14:51:02.982Z,7.60
2019-05-22T14:53:33.517Z,7.37
2019-05-22T14:56:03.663Z,8.20
2019-05-22T14:58:33.978Z,8.17
2019-05-22T15:01:04.397Z,6.73
2019-05-22T15:03:34.433Z,5.80
2019-05-22T15:06:04.558Z,6.27
2019-05-22T15:08:34.222Z,8.30
2019-05-22T15:11:03.917Z,6.77
2019-05-22T15:13:34.233Z,7.43
2019-05-22T15:16:03.896Z,7.10
2019-05-22T15:18:33.467Z,6.87
2019-05-22T15:21:05.048Z,5.97
2019-05-22T15:23:36.925Z,6.67
2019-05-22T15:26:06.516Z,6.63
2019-05-22T15:28:36.361Z,7.50
2019-05-22T15:31:06.195Z,5.80
2019-05-22T15:33:36.080Z,4.73
2019-05-22T15:36:08.122Z,4.63
2019-05-22T15:38:40.927Z,5.53
2019-05-22T15:41:11.253Z,4.87
2019-05-22T15:43:43.470Z,6.23
2019-05-22T15:46:15.517Z,4.77
2019-05-22T15:48:47.332Z,6.43
2019-05-22T15:51:20.901Z,5.17
2019-05-22T15:53:51.998Z,4.97
2019-05-22T15:56:21.940Z,5.37
2019-05-22T15:58:54.780Z,4.00
2019-05-22T16:01:25.582Z,3.70
2019-05-22T16:03:56.718Z,3.50
2019-05-22T16:06:29.997Z,4.50
2019-05-22T16:09:01.796Z,4.10
2019-05-22T16:11:31.458Z,5.57
2019-05-22T16:14:01.787Z,12.67
2019-05-22T16:16:33.013Z,5.27
2019-05-22T16:19:05.530Z,4.43
2019-05-22T16:21:38.443Z,2.70
2019-05-22T16:24:10.660Z,2.77
2019-05-22T16:26:41.194Z,3.87
2019-05-22T16:29:11.611Z,3.83
2019-05-22T16:31:43.651Z,3.37
2019-05-22T16:34:14.270Z,5.37
2019-05-22T16:36:47.849Z,3.07
2019-05-22T16:39:17.613Z,3.77
2019-05-22T16:41:47.543Z,3.40
2019-05-22T16:44:17.533Z,2.60
2019-05-22T16:46:48.733Z,3.70
2019-05-22T16:49:18.179Z,4.00
2019-05-22T16:51:48.703Z,2.73
2019-05-22T16:54:21.155Z,4.43
2019-05-22T16:56:51.539Z,5.27
2019-05-22T16:59:21.474Z,4.00
2019-05-22T17:01:59.669Z,3.90
2019-05-22T17:04:22.597Z,3.70
2019-05-22T17:06:52.256Z,5.00
2019-05-22T17:09:21.816Z,3.97
2019-05-22T17:11:52.464Z,5.53
2019-05-22T17:14:23.588Z,5.50
2019-05-22T17:16:53.083Z,3.77
2019-05-22T17:19:27.419Z,4.50
2019-05-22T17:21:55.158Z,4.87
2019-05-22T17:24:25.094Z,5.70
2019-05-22T17:26:56.056Z,5.43
2019-05-22T17:29:26.397Z,5.70
2019-05-22T17:31:56.553Z,4.30
2019-05-22T17:34:33.762Z,6.57
2019-05-22T17:37:11.067Z,4.50
2019-05-22T17:39:45.871Z,4.43
2019-05-22T17:42:17.572Z,4.87
2019-05-22T17:44:49.494Z,3.97
2019-05-22T17:47:21.829Z,3.53
2019-05-22T17:49:52.222Z,3.90
2019-05-22T17:52:23.332Z,4.93
2019-05-22T17:54:53.580Z,3.40
2019-05-22T17:57:24.113Z,4.43
2019-05-22T17:59:54.544Z,3.70
2019-05-22T18:02:25.662Z,4.23
2019-05-22T18:04:55.343Z,4.83
2019-05-22T18:07:25.735Z,4.13
2019-05-22T18:09:55.490Z,3.87
2019-05-22T18:12:25.667Z,3.70
2019-05-22T18:14:55.320Z,3.30
2019-05-22T18:17:26.449Z,3.87
2019-05-22T18:19:56.098Z,2.40
2019-05-22T18:22:25.529Z,4.73
2019-05-22T18:24:55.101Z,4.13
2019-05-22T18:27:25.495Z,3.77
2019-05-22T18:29:55.148Z,4.57
2019-05-22T18:32:24.770Z,5.30
2019-05-22T18:34:54.303Z,4.17
2019-05-22T18:37:23.989Z,4.10
2019-05-22T18:39:53.622Z,4.33
2019-05-22T18:42:23.276Z,4.93
2019-05-22T18:44:52.739Z,4.93
2019-05-22T18:47:25.142Z,4.57
2019-05-22T18:49:53.922Z,4.03
2019-05-22T18:52:38.209Z,4.63
2019-05-22T18:54:54.561Z,3.90
2019-05-22T18:57:24.037Z,4.73
2019-05-22T19:00:00.536Z,4.80
2019-05-22T19:02:25.101Z,6.77
2019-05-22T19:04:54.536Z,5.53
2019-05-22T19:07:24.373Z,6.20
2019-05-22T19:09:53.802Z,5.07
2019-05-22T19:12:23.933Z,4.20
2019-05-22T19:14:53.722Z,5.90
2019-05-22T19:17:23.570Z,4.80
2019-05-22T19:19:53.009Z,5.13
2019-05-22T19:22:22.582Z,4.47
2019-05-22T19:24:52.438Z,5.93
2019-05-22T19:27:21.923Z,5.47
2019-05-22T19:29:51.354Z,5.33
2019-05-22T19:32:21.002Z,3.43
2019-05-22T19:34:50.483Z,45.07
2019-05-22T19:37:20.486Z,56.97
2019-05-22T19:39:49.910Z,36.37
2019-05-22T19:42:19.481Z,56.53
2019-05-22T19:44:48.948Z,9.33
2019-05-22T19:47:19.687Z,120.97
2019-05-22T19:49:49.164Z,188.70
2019-05-22T19:52:22.474Z,103.00
2019-05-22T19:54:51.226Z,25.40
2019-05-22T19:57:20.886Z,9.80
2019-05-22T19:59:50.351Z,6.83
2019-05-22T20:02:20.716Z,6.10
2019-05-22T20:04:51.188Z,7.33
2019-05-22T20:07:21.159Z,5.13
2019-05-22T20:09:51.406Z,5.03
2019-05-22T20:12:24.740Z,5.80
2019-05-22T20:14:52.422Z,11.87
2019-05-22T20:17:23.232Z,13.73
2019-05-22T20:19:53.426Z,18.77
2019-05-22T20:22:24.333Z,8.77
2019-05-22T20:24:53.802Z,6.00
2019-05-22T20:27:24.042Z,5.43
2019-05-22T20:29:53.608Z,22.33
2019-05-22T20:32:23.999Z,21.90
2019-05-22T20:34:53.416Z,9.20
2019-05-22T20:37:22.812Z,8.83
2019-05-22T20:39:52.394Z,5.87
2019-05-22T20:42:22.643Z,7.40
2019-05-22T20:44:52.394Z,6.60
2019-05-22T20:47:25.208Z,7.37
2019-05-22T20:49:54.890Z,6.33
2019-05-22T20:52:24.829Z,7.77
2019-05-22T20:54:55.883Z,6.00
2019-05-22T20:57:26.293Z,6.70
2019-05-22T20:59:56.756Z,5.43
2019-05-22T21:02:27.084Z,5.27
2019-05-22T21:04:57.533Z,6.90
2019-05-22T21:07:33.223Z,8.70
2019-05-22T21:10:03.615Z,6.57
2019-05-22T21:12:36.109Z,6.93
2019-05-22T21:15:06.641Z,6.87
2019-05-22T21:17:37.585Z,5.90
2019-05-22T21:20:09.865Z,6.13
2019-05-22T21:22:40.043Z,5.80
2019-05-22T21:25:11.976Z,7.73
2019-05-22T21:27:42.579Z,7.73
2019-05-22T21:30:14.007Z,6.77
2019-05-22T21:32:44.010Z,6.27
2019-05-22T21:35:18.587Z,5.83
2019-05-22T21:37:48.054Z,5.67
2019-05-22T21:40:21.085Z,5.43
2019-05-22T21:42:52.241Z,7.00
2019-05-22T21:45:22.811Z,6.77
2019-05-22T21:47:52.641Z,6.63
2019-05-22T21:50:22.591Z,7.00
2019-05-22T21:52:53.402Z,8.23
2019-05-22T21:55:24.167Z,9.03
2019-05-22T21:57:55.176Z,7.00
2019-05-22T22:00:34.866Z,7.30
2019-05-22T22:03:05.879Z,7.00
2019-05-22T22:05:35.841Z,6.90
2019-05-22T22:08:05.584Z,6.73
2019-05-22T22:10:35.464Z,6.97
2019-05-22T22:13:07.888Z,6.37
2019-05-22T22:15:41.910Z,8.03
2019-05-22T22:18:13.160Z,8.40
2019-05-22T22:20:43.582Z,6.50
2019-05-22T22:23:15.320Z,8.20
2019-05-22T22:25:46.765Z,7.47
2019-05-22T22:28:18.176Z,7.13
2019-05-22T22:30:55.204Z,7.00
2019-05-22T22:33:32.234Z,6.50
2019-05-22T22:36:03.368Z,8.33
2019-05-22T22:38:35.272Z,7.77
2019-05-22T22:41:07.174Z,6.83
2019-05-22T22:43:39.499Z,7.57
2019-05-22T22:46:19.242Z,9.77
2019-05-22T22:48:51.698Z,8.27
2019-05-22T22:51:22.569Z,7.07
2019-05-22T22:53:53.616Z,6.63
2019-05-22T22:56:23.859Z,6.37
2019-05-22T22:58:53.805Z,6.63
2019-05-22T23:01:27.912Z,8.00
2019-05-22T23:04:01.010Z,6.67
2019-05-22T23:06:31.639Z,6.70
2019-05-22T23:09:01.942Z,7.07
2019-05-22T23:11:32.603Z,5.40
2019-05-22T23:14:02.969Z,7.67
2019-05-22T23:16:32.361Z,5.70
2019-05-22T23:19:14.451Z,6.03
2019-05-22T23:21:44.356Z,6.40
2019-05-22T23:24:14.266Z,6.63
2019-05-22T23:26:44.731Z,6.47
2019-05-22T23:29:14.192Z,6.47
2019-05-22T23:31:44.275Z,6.97
2019-05-22T23:34:13.944Z,7.00
2019-05-22T23:36:45.284Z,8.03
2019-05-22T23:39:15.414Z,6.80
2019-05-22T23:41:46.514Z,6.40
2019-05-22T23:44:19.490Z,10.17
2019-05-22T23:46:49.803Z,9.10
2019-05-22T23:49:19.189Z,8.47
2019-05-22T23:51:48.800Z,8.77
2019-05-22T23:54:18.532Z,8.83
2019-05-22T23:56:49.731Z,8.13
2019-05-22T23:59:19.530Z,9.13
